Time;durP1;ratioP1;P1;durP2;ratioP2;P2;SDS_P1;SDS_P2;PMS_P1;PMS_P2;Temp;Humidity;BMP_temperature;BMP_pressure;BME280_temperature;BME280_humidity;BME280_pressure;Samples;Min_cycle;Max_cycle;Signal;HPM_P1;HPM_P2
2022/05/28 00:00:20;;;;;;;10.32;2.17;;;;;;;11.45;98.62;99036.03;1672283;85;21244;-75
2022/05/28 00:02:46;;;;;;;3.10;2.35;;;;;;;11.45;98.57;99023.38;1671250;85;20982;-76
2022/05/28 00:05:13;;;;;;;1.87;1.77;;;;;;;11.44;98.14;99029.84;1640672;87;21545;-75
2022/05/28 00:07:40;;;;;;;3.55;1.95;;;;;;;11.42;98.12;99044.09;1613189;89;21589;-76
2022/05/28 00:10:11;;;;;;;2.37;2.17;;;;;;;11.43;98.14;99059.17;1647951;85;21077;-75
2022/05/28 00:12:39;;;;;;;2.05;1.85;;;;;;;11.42;98.09;99079.09;1645687;85;20986;-75
2022/05/28 00:15:06;;;;;;;4.10;2.37;;;;;;;11.42;98.15;99083.14;1684433;85;21015;-75
2022/05/28 00:17:33;;;;;;;5.37;2.10;;;;;;;11.40;98.10;99081.27;1640652;87;21697;-76
2022/05/28 00:20:00;;;;;;;2.58;1.80;;;;;;;11.39;98.16;99079.65;1681952;83;21102;-73
2022/05/28 00:22:27;;;;;;;1.98;1.87;;;;;;;11.37;98.26;99081.25;1647081;86;21114;-73
2022/05/28 00:24:56;;;;;;;5.87;1.80;;;;;;;11.35;98.16;99072.66;1640607;87;21067;-73
2022/05/28 00:27:24;;;;;;;2.47;2.22;;;;;;;11.35;98.21;99066.46;1650350;86;21067;-71
2022/05/28 00:29:51;;;;;;;1.95;1.85;;;;;;;11.36;98.24;99047.89;1653772;86;21637;-72
2022/05/28 00:32:18;;;;;;;2.10;1.90;;;;;;;11.36;98.11;99059.47;1660242;86;21041;-71
2022/05/28 00:34:44;;;;;;;4.50;2.27;;;;;;;11.34;97.97;99027.96;1659842;86;21029;-72
2022/05/28 00:37:10;;;;;;;10.63;2.40;;;;;;;11.32;97.85;99011.26;1660328;86;22097;-74
2022/05/28 00:39:37;;;;;;;2.37;2.17;;;;;;;11.30;97.81;99005.89;1660221;86;21608;-72
2022/05/28 00:42:03;;;;;;;2.20;1.98;;;;;;;11.33;97.97;99036.30;1677090;85;21023;-70
2022/05/28 00:44:30;;;;;;;2.08;1.98;;;;;;;11.33;97.92;99019.61;1652100;85;21007;-72
2022/05/28 00:46:56;;;;;;;2.50;2.30;;;;;;;11.33;97.78;99008.03;1676598;85;21051;-72
2022/05/28 00:49:27;;;;;;;2.47;2.10;;;;;;;11.31;97.75;99008.33;1677008;85;20995;-72
2022/05/28 00:51:56;;;;;;;6.45;1.87;;;;;;;11.31;97.61;99054.63;1677011;85;21567;-74
2022/05/28 00:54:23;;;;;;;3.02;2.12;;;;;;;11.28;97.46;99048.41;1676671;85;21073;-76
2022/05/28 00:56:49;;;;;;;3.20;2.02;;;;;;;11.27;97.70;99058.38;1676463;85;21607;-75
2022/05/28 00:59:17;;;;;;;2.40;2.20;;;;;;;11.31;97.69;99072.13;1676473;84;21526;-73
2022/05/28 01:01:44;;;;;;;2.75;2.55;;;;;;;11.30;97.59;99052.47;1660015;86;21736;-74
2022/05/28 01:04:34;;;;;;;2.62;2.42;;;;;;;11.30;97.47;99058.39;1648197;85;21147;-73
2022/05/28 01:07:10;;;;;;;2.83;1.72;;;;;;;11.26;97.25;99038.47;1648207;87;21053;-73
2022/05/28 01:09:49;;;;;;;2.52;2.33;;;;;;;11.25;97.32;99036.85;1659078;85;21576;-73
2022/05/28 01:12:30;;;;;;;2.52;2.33;;;;;;;11.26;97.57;99043.32;1677063;85;21135;-73
2022/05/28 01:15:10;;;;;;;2.95;2.25;;;;;;;11.29;97.58;99037.92;1677359;85;21509;-73
2022/05/28 01:17:46;;;;;;;2.83;2.50;;;;;;;11.28;97.60;99030.92;1669964;85;21047;-72
2022/05/28 01:20:23;;;;;;;2.37;2.20;;;;;;;11.26;97.49;99028.52;1667866;85;20974;-73
2022/05/28 01:23:04;;;;;;;2.80;2.60;;;;;;;11.22;97.40;99058.38;1664534;85;21104;-71
2022/05/28 01:26:03;;;;;;;2.85;2.50;;;;;;;11.21;97.50;99066.73;1660778;86;21594;-71
2022/05/28 01:28:36;;;;;;;6.40;2.65;;;;;;;11.21;97.62;99068.08;1660568;85;21563;-71
2022/05/28 01:31:04;;;;;;;2.65;2.30;;;;;;;11.18;97.30;99058.64;1653051;85;20990;-71
2022/05/28 01:33:34;;;;;;;6.37;2.77;;;;;;;11.16;97.36;99059.47;1648635;87;21026;-72
2022/05/28 01:36:00;;;;;;;2.70;2.50;;;;;;;11.14;97.51;99048.16;1624514;87;21074;-72
2022/05/28 01:38:27;;;;;;;2.70;2.50;;;;;;;11.14;97.73;99046.00;1652062;85;21457;-71
2022/05/28 01:40:54;;;;;;;2.83;2.45;;;;;;;11.15;97.79;99048.96;1699168;83;21391;-71
2022/05/28 01:43:20;;;;;;;4.08;3.62;;;;;;;11.16;97.93;99044.66;1680033;85;21002;-71
2022/05/28 01:45:48;;;;;;;2.72;1.95;;;;;;;11.16;97.95;99024.48;1689387;83;21489;-72
2022/05/28 01:48:14;;;;;;;3.72;2.65;;;;;;;11.18;97.91;99050.57;1631796;85;21095;-71
2022/05/28 01:50:45;;;;;;;4.87;2.30;;;;;;;11.16;97.81;99041.98;1655623;85;21373;-71
2022/05/28 01:54:07;;;;;;;2.50;2.30;;;;;;;11.17;97.95;99048.17;1673628;85;21166;-71
2022/05/28 01:55:44;;;;;;;2.92;2.72;;;;;;;11.16;97.88;99050.05;1669658;85;21044;-74
2022/05/28 01:58:10;;;;;;;2.83;2.60;;;;;;;11.17;97.90;99044.13;1656840;85;21647;-72
2022/05/28 02:00:37;;;;;;;3.08;2.70;;;;;;;11.19;97.93;99061.61;1666887;83;21032;-70
2022/05/28 02:03:03;;;;;;;4.87;2.47;;;;;;;11.18;97.86;99056.48;1698139;84;21076;-72
2022/05/28 02:05:30;;;;;;;2.52;2.33;;;;;;;11.18;97.90;99042.50;1697990;84;21471;-72
2022/05/28 02:07:57;;;;;;;4.85;3.00;;;;;;;11.17;97.96;99067.01;1664217;86;21012;-72
2022/05/28 02:10:24;;;;;;;3.55;3.22;;;;;;;11.18;97.96;99067.25;1688185;84;21027;-71
2022/05/28 02:13:08;;;;;;;2.77;2.58;;;;;;;11.19;97.83;99063.49;1612857;87;21086;-68
2022/05/28 02:15:45;;;;;;;4.25;2.55;;;;;;;11.18;97.86;99057.83;1654748;85;21063;-69
2022/05/28 02:18:26;;;;;;;3.42;3.12;;;;;;;11.18;97.95;99047.06;1694470;83;21079;-70
2022/05/28 02:21:01;;;;;;;6.75;3.00;;;;;;;11.16;97.77;99037.12;1640245;86;21575;-71
2022/05/28 02:23:50;;;;;;;3.70;2.98;;;;;;;11.14;97.90;99036.04;1685834;85;21056;-69
2022/05/28 02:26:27;;;;;;;4.20;3.10;;;;;;;11.12;97.90;99024.76;1685996;85;21566;-71
2022/05/28 02:28:53;;;;;;;2.72;2.47;;;;;;;11.11;97.92;99036.59;1681825;85;21587;-70
2022/05/28 02:31:29;;;;;;;3.10;2.90;;;;;;;11.09;98.09;99041.42;1671260;84;21303;-70
2022/05/28 02:33:56;;;;;;;5.83;3.90;;;;;;;11.10;98.12;99038.20;1650079;85;20963;-70
2022/05/28 02:36:23;;;;;;;3.47;2.83;;;;;;;11.09;98.35;99037.92;1658133;86;21027;-69
2022/05/28 02:38:51;;;;;;;2.85;2.65;;;;;;;11.11;98.49;99036.59;1665932;85;21118;-70
2022/05/28 02:41:20;;;;;;;2.90;2.70;;;;;;;11.12;98.44;99047.63;1650978;85;21026;-70
2022/05/28 02:43:47;;;;;;;3.62;3.10;;;;;;;11.11;98.44;99047.35;1694986;83;21231;-70
2022/05/28 02:46:13;;;;;;;5.50;2.75;;;;;;;11.13;98.51;99059.17;1698100;83;21533;-70
2022/05/28 02:48:40;;;;;;;3.92;3.42;;;;;;;11.15;98.67;99071.84;1695037;83;21559;-71
2022/05/28 02:51:16;;;;;;;3.62;2.80;;;;;;;11.16;98.62;99076.15;1662269;85;21075;-70
2022/05/28 02:53:43;;;;;;;5.65;3.12;;;;;;;11.17;98.70;99069.16;1698281;84;21107;-70
2022/05/28 02:56:11;;;;;;;3.02;2.83;;;;;;;11.20;98.57;99063.77;1698087;84;21513;-70
2022/05/28 02:58:38;;;;;;;4.70;2.50;;;;;;;11.20;98.45;99057.03;1683676;84;21023;-70
2022/05/28 03:01:34;;;;;;;3.60;2.47;;;;;;;11.20;98.32;99061.08;1657526;85;21007;-69
2022/05/28 03:04:02;;;;;;;4.62;3.12;;;;;;;11.20;98.39;99056.50;1697705;83;21092;-70
2022/05/28 03:06:29;;;;;;;2.75;2.50;;;;;;;11.24;98.66;99059.45;1637762;86;21062;-72
2022/05/28 03:08:57;;;;;;;2.70;2.52;;;;;;;11.27;98.57;99058.94;1693959;83;21119;-71
2022/05/28 03:11:23;;;;;;;3.47;2.52;;;;;;;11.30;98.33;99062.42;1652363;86;21033;-72
2022/05/28 03:13:51;;;;;;;5.53;2.92;;;;;;;11.32;98.22;99067.80;1686091;85;21071;-70
2022/05/28 03:16:18;;;;;;;12.28;3.10;;;;;;;11.33;98.05;99069.41;1695470;83;21069;-70
2022/05/28 03:18:44;;;;;;;3.25;2.95;;;;;;;11.31;97.72;99052.74;1695417;84;21599;-70
2022/05/28 03:21:10;;;;;;;3.52;3.00;;;;;;;11.32;97.66;99075.06;1685503;85;22019;-69
2022/05/28 03:23:37;;;;;;;3.05;2.85;;;;;;;11.33;97.48;99067.26;1651030;85;20970;-70
2022/05/28 03:26:14;;;;;;;3.55;3.22;;;;;;;11.34;97.47;99064.84;1652495;86;21347;-70
2022/05/28 03:28:41;;;;;;;3.20;2.90;;;;;;;11.36;97.23;99067.55;1685652;83;21704;-71
2022/05/28 03:31:07;;;;;;;3.75;3.42;;;;;;;11.34;97.14;99084.50;1687726;84;21011;-71
2022/05/28 03:33:35;;;;;;;4.92;2.87;;;;;;;11.34;97.04;99099.30;1691791;84;20956;-73
2022/05/28 03:36:03;;;;;;;2.92;2.72;;;;;;;11.34;96.97;99092.58;1691690;84;21027;-73
2022/05/28 03:38:30;;;;;;;3.50;3.20;;;;;;;11.38;96.93;99096.88;1700144;83;21027;-73
2022/05/28 03:40:58;;;;;;;3.27;3.00;;;;;;;11.43;97.01;99096.06;1692076;84;21007;-72
2022/05/28 03:43:27;;;;;;;3.77;3.30;;;;;;;11.49;96.89;99111.96;1691799;84;21548;-71
2022/05/28 03:45:53;;;;;;;4.35;3.95;;;;;;;11.52;96.73;99103.87;1689777;83;21184;-72
2022/05/28 03:48:20;;;;;;;4.12;3.42;;;;;;;11.54;96.48;99097.69;1691913;84;21071;-71
2022/05/28 03:50:47;;;;;;;6.53;3.55;;;;;;;11.56;96.41;99093.63;1667863;84;21083;-72
2022/05/28 03:53:19;;;;;;;4.12;3.72;;;;;;;11.60;96.22;99084.49;1691945;83;21027;-72
2022/05/28 03:55:43;;;;;;;3.25;2.95;;;;;;;11.64;96.03;99097.68;1689652;84;21070;-70
2022/05/28 03:58:11;;;;;;;3.65;3.37;;;;;;;11.66;95.39;99095.50;1691691;84;21520;-71
2022/05/28 04:00:38;;;;;;;3.55;3.25;;;;;;;11.64;95.26;99090.41;1691679;84;20967;-71
2022/05/28 04:03:05;;;;;;;3.58;3.27;;;;;;;11.64;95.14;99109.80;1692111;84;21107;-70
2022/05/28 04:05:32;;;;;;;7.25;3.22;;;;;;;11.66;95.17;99107.63;1691814;84;21039;-72
2022/05/28 04:07:59;;;;;;;4.47;4.00;;;;;;;11.69;95.05;99111.14;1697576;83;22258;-72
2022/05/28 04:10:25;;;;;;;3.95;3.30;;;;;;;11.74;95.10;99107.13;1692411;82;21118;-70
2022/05/28 04:12:52;;;;;;;5.53;3.45;;;;;;;11.82;95.13;99111.15;1691493;84;21130;-71
2022/05/28 04:15:19;;;;;;;3.45;3.15;;;;;;;11.88;94.79;99108.72;1699706;83;21009;-71
2022/05/28 04:17:45;;;;;;;5.20;3.10;;;;;;;11.92;94.61;99110.59;1706503;84;21104;-72
2022/05/28 04:20:13;;;;;;;3.47;3.08;;;;;;;11.95;94.22;99122.17;1693559;83;21012;-71
2022/05/28 04:22:39;;;;;;;4.35;3.00;;;;;;;11.94;93.56;99116.50;1667542;84;21090;-72
2022/05/28 04:25:08;;;;;;;2.92;2.70;;;;;;;11.93;93.41;99120.30;1691683;84;20971;-71
2022/05/28 04:27:42;;;;;;;4.10;3.60;;;;;;;11.92;93.00;99124.07;1691724;84;21607;-71
2022/05/28 04:30:09;;;;;;;3.33;3.02;;;;;;;11.91;92.56;99111.67;1691584;84;21012;-71
2022/05/28 04:32:36;;;;;;;3.25;3.05;;;;;;;11.94;92.48;99116.50;1655095;85;21029;-70
2022/05/28 04:35:03;;;;;;;3.47;3.17;;;;;;;11.95;91.97;99116.78;1685006;84;22171;-71
2022/05/28 04:37:30;;;;;;;3.90;3.60;;;;;;;11.98;91.93;99118.14;1674852;84;20977;-71
2022/05/28 04:39:56;;;;;;;4.95;3.95;;;;;;;12.01;91.84;99125.66;1693219;83;20999;-71
2022/05/28 04:42:23;;;;;;;2.72;2.47;;;;;;;12.04;91.69;99119.72;1657943;86;21066;-71
2022/05/28 04:44:50;;;;;;;3.47;3.10;;;;;;;12.08;91.45;99120.81;1657708;86;21091;-69
2022/05/28 04:47:17;;;;;;;3.85;2.72;;;;;;;12.08;91.15;99118.93;1658028;86;21134;-70
2022/05/28 04:49:45;;;;;;;3.55;3.25;;;;;;;12.18;91.19;99120.79;1650644;86;21596;-71
2022/05/28 04:52:12;;;;;;;4.58;4.17;;;;;;;12.22;90.72;99124.01;1666722;85;21058;-71
2022/05/28 04:54:38;;;;;;;5.37;2.98;;;;;;;12.25;90.44;99130.73;1645503;86;21049;-71
2022/05/28 04:57:05;;;;;;;5.17;3.35;;;;;;;12.27;89.86;99130.46;1649127;86;21076;-71
2022/05/28 04:59:31;;;;;;;4.05;3.62;;;;;;;12.27;89.62;99125.07;1603098;88;21237;-72
2022/05/28 05:01:58;;;;;;;4.40;3.27;;;;;;;12.28;89.51;99127.47;1619375;88;21102;-70
2022/05/28 05:04:24;;;;;;;3.12;2.62;;;;;;;12.32;89.41;99125.87;1628544;88;22161;-70
2022/05/28 05:06:51;;;;;;;4.78;2.87;;;;;;;12.34;89.27;99122.34;1629659;87;21068;-71
2022/05/28 05:09:17;;;;;;;4.17;3.83;;;;;;;12.39;89.02;99131.77;1625705;88;21047;-70
2022/05/28 05:11:45;;;;;;;10.32;3.42;;;;;;;12.44;88.88;99133.09;1595315;87;21066;-70
2022/05/28 05:14:12;;;;;;;3.40;3.20;;;;;;;12.48;88.77;99140.08;1674961;83;20997;-70
2022/05/28 05:16:38;;;;;;;4.12;3.25;;;;;;;12.48;88.39;99138.73;1666450;85;21003;-71
2022/05/28 05:19:04;;;;;;;3.40;2.85;;;;;;;12.48;88.45;99130.64;1635330;87;21155;-73
2022/05/28 05:21:31;;;;;;;2.50;2.30;;;;;;;12.53;88.39;99133.32;1648954;85;21617;-71
2022/05/28 05:23:58;;;;;;;5.58;3.20;;;;;;;12.58;87.71;99131.41;1638532;86;21802;-71
2022/05/28 05:26:25;;;;;;;3.42;2.95;;;;;;;12.61;87.13;99138.16;1667067;86;20979;-71
2022/05/28 05:28:51;;;;;;;3.75;3.40;;;;;;;12.62;86.57;99134.36;1663316;86;21071;-72
2022/05/28 05:31:18;;;;;;;5.40;3.95;;;;;;;12.60;86.51;99132.50;1646150;86;21133;-72
2022/05/28 05:33:44;;;;;;;4.10;3.80;;;;;;;12.60;86.54;99140.05;1646073;87;21082;-71
2022/05/28 05:36:13;;;;;;;4.10;3.40;;;;;;;12.62;86.10;99135.17;1582657;88;21209;-72
2022/05/28 05:38:39;;;;;;;5.47;3.42;;;;;;;12.67;86.15;99140.55;1624789;85;21067;-71
2022/05/28 05:41:06;;;;;;;6.80;3.80;;;;;;;12.75;85.88;99131.63;1645927;87;21039;-72
2022/05/28 05:43:32;;;;;;;5.97;3.77;;;;;;;12.77;85.53;99131.59;1618278;88;21056;-71
2022/05/28 05:46:00;;;;;;;4.55;3.83;;;;;;;12.82;85.62;99135.62;1646232;87;21035;-71
2022/05/28 05:48:28;;;;;;;3.33;3.02;;;;;;;12.88;85.80;99142.61;1645912;87;21277;-72
2022/05/28 05:50:54;;;;;;;3.98;3.40;;;;;;;12.95;85.16;99145.80;1638847;85;22263;-70
2022/05/28 05:53:21;;;;;;;5.75;3.80;;;;;;;12.99;84.41;99142.02;1591454;90;21010;-70
2022/05/28 05:55:47;;;;;;;3.40;2.70;;;;;;;13.00;83.50;99139.02;1604980;88;21086;-71
2022/05/28 05:58:14;;;;;;;4.03;3.58;;;;;;;13.03;82.47;99140.37;1646360;86;21074;-73
2022/05/28 06:00:41;;;;;;;3.75;3.45;;;;;;;13.06;82.09;99138.45;1614952;88;21641;-70
2022/05/28 06:03:17;;;;;;;3.15;2.85;;;;;;;13.07;82.16;99138.72;1669521;85;21003;-71
2022/05/28 06:05:44;;;;;;;3.42;3.12;;;;;;;13.16;81.74;99154.63;1646076;87;21570;-71
2022/05/28 06:08:12;;;;;;;3.40;2.87;;;;;;;13.23;80.05;99156.48;1618363;88;21104;-72
2022/05/28 06:10:39;;;;;;;3.17;2.87;;;;;;;13.25;79.42;99147.54;1645868;87;21102;-70
2022/05/28 06:13:05;;;;;;;4.55;3.58;;;;;;;13.24;78.39;99157.27;1644581;87;21095;-71
2022/05/28 06:15:31;;;;;;;3.27;2.98;;;;;;;13.22;77.82;99156.75;1630395;87;21069;-71
2022/05/28 06:17:58;;;;;;;3.22;2.92;;;;;;;13.23;77.55;99148.38;1628589;87;21082;-71
2022/05/28 06:20:24;;;;;;;3.70;3.05;;;;;;;13.27;76.59;99140.52;1642099;87;21150;-72
2022/05/28 06:22:50;;;;;;;5.35;3.85;;;;;;;13.31;76.85;99141.02;1617788;88;21048;-71
2022/05/28 06:25:17;;;;;;;3.77;3.45;;;;;;;13.34;76.98;99137.75;1646061;87;21072;-71
2022/05/28 06:27:46;;;;;;;10.60;3.30;;;;;;;13.39;77.34;99135.55;1621692;87;21128;-72
2022/05/28 06:30:14;;;;;;;4.08;3.02;;;;;;;13.44;77.62;99143.62;1646062;87;21018;-72
2022/05/28 06:32:41;;;;;;;4.17;3.02;;;;;;;13.48;77.89;99142.77;1613508;87;21095;-72
2022/05/28 06:35:09;;;;;;;3.55;3.10;;;;;;;13.51;77.35;99152.23;1651369;85;21073;-71
2022/05/28 06:37:36;;;;;;;4.97;3.12;;;;;;;13.57;77.07;99138.14;1680266;84;21194;-71
2022/05/28 06:40:04;;;;;;;3.90;2.92;;;;;;;13.64;77.18;99165.63;1698231;84;21138;-74
2022/05/28 06:42:31;;;;;;;7.35;5.67;;;;;;;13.70;75.86;99159.91;1692000;83;21134;-72
2022/05/28 06:44:59;;;;;;;3.52;3.27;;;;;;;13.72;75.39;99157.71;1685137;84;21015;-71
2022/05/28 06:47:26;;;;;;;6.72;3.70;;;;;;;13.74;75.13;99157.44;1627941;83;22827;-71
2022/05/28 06:52:38;;;;;;;4.28;3.62;;;;;;;13.79;75.08;99156.86;1627979;87;21554;-74
2022/05/28 06:55:05;;;;;;;3.47;3.12;;;;;;;13.81;75.35;99152.53;1616047;88;21600;-73
2022/05/28 06:57:31;;;;;;;6.25;3.92;;;;;;;13.84;75.63;99159.52;1589058;88;21065;-73
2022/05/28 06:59:59;;;;;;;3.17;2.87;;;;;;;13.88;75.20;99158.39;1616005;88;21126;-74
2022/05/28 07:02:26;;;;;;;4.58;3.95;;;;;;;13.92;74.90;99150.78;1615888;88;21403;-72
2022/05/28 07:04:53;;;;;;;4.80;4.10;;;;;;;13.98;74.84;99162.36;1616216;88;22290;-71
2022/05/28 07:07:19;;;;;;;4.35;3.85;;;;;;;14.04;74.53;99146.36;1615700;87;21099;-71
2022/05/28 07:09:47;;;;;;;5.05;4.50;;;;;;;14.09;74.54;99152.27;1637745;87;21152;-71
2022/05/28 07:12:14;;;;;;;6.47;4.08;;;;;;;14.11;74.34;99141.95;1633403;87;21373;-71
2022/05/28 07:14:41;;;;;;;5.97;3.08;;;;;;;14.14;74.76;99140.04;1638013;87;21173;-73
2022/05/28 07:17:07;;;;;;;7.97;3.77;;;;;;;14.21;74.39;99156.72;1640743;87;21031;-73
2022/05/28 07:19:34;;;;;;;3.98;3.62;;;;;;;14.24;74.23;99149.41;1616323;87;21697;-73
2022/05/28 07:22:00;;;;;;;3.80;3.45;;;;;;;14.29;74.40;99161.52;1615953;88;21062;-73
2022/05/28 07:24:26;;;;;;;5.55;3.15;;;;;;;14.34;73.73;99148.72;1615999;88;21056;-72
2022/05/28 07:26:53;;;;;;;4.03;3.72;;;;;;;14.37;73.19;99155.50;1616312;88;21115;-72
2022/05/28 07:29:20;;;;;;;4.45;3.37;;;;;;;14.43;72.93;99155.72;1615830;88;21597;-72
2022/05/28 07:31:46;;;;;;;3.83;3.08;;;;;;;14.51;72.66;99165.89;1615929;88;21577;-72
2022/05/28 07:34:13;;;;;;;4.33;3.25;;;;;;;14.60;72.11;99176.88;1575142;88;21164;-73
2022/05/28 07:36:40;;;;;;;5.33;4.17;;;;;;;14.62;70.62;99165.23;1567678;91;21082;-72
2022/05/28 07:39:07;;;;;;;4.83;3.87;;;;;;;14.64;70.55;99163.03;1543819;91;21635;-72
2022/05/28 07:41:36;;;;;;;3.35;3.05;;;;;;;14.63;69.40;99158.16;1583502;90;21121;-73
2022/05/28 07:44:03;;;;;;;4.12;3.27;;;;;;;14.60;69.28;99187.71;1575183;88;21070;-71
2022/05/28 07:46:31;;;;;;;3.35;3.02;;;;;;;14.57;68.31;99162.05;1585065;88;21594;-72
2022/05/28 07:48:59;;;;;;;4.28;3.02;;;;;;;14.59;67.30;99174.72;1620928;88;21633;-72
2022/05/28 07:51:26;;;;;;;4.12;3.05;;;;;;;14.61;67.35;99152.25;1604183;88;21110;-72
2022/05/28 07:53:53;;;;;;;2.92;2.67;;;;;;;14.63;67.85;99151.94;1617043;88;21511;-70
2022/05/28 07:56:19;;;;;;;4.03;3.40;;;;;;;14.67;67.94;99154.34;1621448;88;20997;-70
2022/05/28 07:58:46;;;;;;;7.60;3.10;;;;;;;14.72;66.53;99152.36;1621000;88;21623;-73
2022/05/28 08:01:23;;;;;;;3.27;2.92;;;;;;;14.76;66.35;99153.96;1621179;88;21097;-73
2022/05/28 08:03:49;;;;;;;3.30;3.00;;;;;;;14.84;66.35;99148.70;1620730;88;21870;-72
2022/05/28 08:06:17;;;;;;;3.58;3.10;;;;;;;14.94;66.14;99145.05;1605263;88;21063;-72
2022/05/28 08:08:44;;;;;;;3.12;2.67;;;;;;;14.99;65.16;99166.65;1592720;90;21104;-72
2022/05/28 08:11:11;;;;;;;4.80;3.42;;;;;;;15.05;64.68;99153.30;1591978;90;21082;-74
2022/05/28 08:13:38;;;;;;;4.50;3.52;;;;;;;15.07;64.43;99156.50;1592521;88;21039;-72
2022/05/28 08:16:06;;;;;;;2.92;2.62;;;;;;;15.11;63.45;99152.66;1576922;88;21076;-75
2022/05/28 08:18:32;;;;;;;4.03;2.95;;;;;;;15.20;62.84;99157.13;1586877;90;21596;-75
2022/05/28 08:23:45;;;;;;;5.58;2.80;;;;;;;15.36;61.70;99162.33;1605504;88;21155;-74
2022/05/28 08:26:14;;;;;;;3.30;3.00;;;;;;;15.45;61.80;99164.63;1594244;88;21082;-76
2022/05/28 08:28:41;;;;;;;2.98;2.75;;;;;;;15.52;61.61;99155.61;1620961;88;21466;-73
2022/05/28 08:31:07;;;;;;;4.55;2.95;;;;;;;15.60;60.98;99173.91;1602367;88;21122;-73
2022/05/28 08:33:34;;;;;;;5.47;3.05;;;;;;;15.63;60.13;99153.78;1587642;88;21018;-75
2022/05/28 08:36:00;;;;;;;6.40;2.65;;;;;;;15.68;60.49;99165.91;1614059;87;21064;-72
2022/05/28 08:38:27;;;;;;;8.13;2.75;;;;;;;15.73;57.99;99165.59;1613341;87;21092;-71
2022/05/28 08:41:10;;;;;;;2.45;2.27;;;;;;;15.78;57.52;99164.93;1612144;88;22099;-72
2022/05/28 08:43:39;;;;;;;3.87;2.70;;;;;;;15.85;56.90;99159.14;1631880;87;21156;-71
2022/05/28 08:46:08;;;;;;;4.90;2.37;;;;;;;15.94;56.91;99157.35;1627691;87;21039;-71
2022/05/28 08:48:45;;;;;;;2.72;2.52;;;;;;;16.04;55.65;99157.17;1631549;87;21049;-74
2022/05/28 08:51:46;;;;;;;4.08;2.20;;;;;;;16.13;54.70;99187.94;1616658;88;21023;-72
2022/05/28 08:54:33;;;;;;;4.17;2.52;;;;;;;16.17;52.47;99161.81;1616889;87;22616;-73
2022/05/28 08:57:11;;;;;;;2.37;2.10;;;;;;;16.23;53.09;99160.63;1616032;88;21041;-72
2022/05/28 08:59:44;;;;;;;2.30;2.10;;;;;;;16.30;53.55;99154.81;1619579;87;21097;-74
2022/05/28 09:02:15;;;;;;;3.22;1.98;;;;;;;16.34;53.18;99154.46;1617355;87;21580;-74
2022/05/28 09:04:42;;;;;;;5.17;2.20;;;;;;;16.39;51.98;99175.53;1619392;87;21048;-73
2022/05/28 09:07:13;;;;;;;4.12;1.92;;;;;;;16.39;51.92;99157.89;1621029;88;22457;-74
2022/05/28 09:09:44;;;;;;;3.22;1.85;;;;;;;16.41;50.96;99177.92;1596395;89;21062;-74
2022/05/28 09:12:19;;;;;;;4.28;2.12;;;;;;;16.41;50.92;99171.14;1588134;89;21014;-71
2022/05/28 09:14:46;;;;;;;4.28;1.80;;;;;;;16.40;51.01;99166.84;1615720;88;21110;-72
2022/05/28 09:17:31;;;;;;;4.72;2.62;;;;;;;16.40;51.39;99161.41;1615866;88;21219;-71
2022/05/28 09:20:02;;;;;;;5.90;2.17;;;;;;;16.37;51.66;99165.52;1615852;88;21297;-70
2022/05/28 09:22:29;;;;;;;4.47;3.33;;;;;;;16.33;51.85;99160.98;1614812;88;21523;-72
2022/05/28 09:24:55;;;;;;;6.87;3.52;;;;;;;16.30;52.13;99158.34;1614014;88;21602;-71
2022/05/28 09:28:09;;;;;;;5.35;2.40;;;;;;;16.30;52.54;99168.38;1615667;87;21595;-72
2022/05/28 09:31:01;;;;;;;5.85;3.37;;;;;;;16.34;52.40;99159.89;1590681;90;21109;-73
2022/05/28 09:34:01;;;;;;;2.87;2.02;;;;;;;16.42;51.91;99149.68;1562351;90;21890;-71
2022/05/28 09:36:33;;;;;;;4.45;2.08;;;;;;;16.52;51.38;99153.55;1590450;88;21759;-72
2022/05/28 09:39:21;;;;;;;5.65;2.40;;;;;;;16.62;51.09;99183.25;1584639;88;21027;-71
2022/05/28 09:42:09;;;;;;;3.50;3.05;;;;;;;16.65;50.55;99154.68;1615866;88;21038;-72
2022/05/28 09:44:56;;;;;;;3.05;2.35;;;;;;;16.69;51.04;99149.70;1614263;87;21176;-72
2022/05/28 09:47:22;;;;;;;4.15;2.42;;;;;;;16.76;51.33;99148.75;1614759;87;21163;-74
2022/05/28 09:49:54;;;;;;;4.17;2.15;;;;;;;16.84;51.35;99142.59;1614719;88;21073;-70
2022/05/28 09:52:27;;;;;;;2.83;2.22;;;;;;;16.88;50.24;99142.23;1614620;88;20982;-72
2022/05/28 09:55:12;;;;;;;6.70;2.27;;;;;;;16.92;50.63;99145.97;1615913;87;21080;-72
2022/05/28 09:57:47;;;;;;;2.80;2.17;;;;;;;16.98;50.25;99142.02;1602977;87;21042;-72
2022/05/28 10:00:14;;;;;;;3.35;2.02;;;;;;;17.03;50.52;99134.30;1616882;87;21151;-72
2022/05/28 10:04:28;;;;;;;1.92;1.77;;;;;;;17.12;49.88;99133.83;1616906;87;21070;-70
2022/05/28 10:05:16;;;;;;;3.90;1.75;;;;;;;17.24;48.17;99125.14;1629864;87;21098;-70
2022/05/28 10:07:47;;;;;;;7.90;2.45;;;;;;;17.39;49.06;99146.55;1635808;87;21171;-70
2022/05/28 10:10:31;;;;;;;2.35;1.60;;;;;;;17.52;48.15;99123.12;1618553;88;21089;-71
2022/05/28 10:13:16;;;;;;;4.10;1.77;;;;;;;17.59;47.00;99131.69;1614154;88;21393;-71
2022/05/28 10:16:00;;;;;;;5.10;2.35;;;;;;;17.63;46.08;99128.05;1621282;87;21091;-70
2022/05/28 10:18:48;;;;;;;2.00;1.62;;;;;;;17.67;46.68;99108.63;1622475;87;21081;-70
2022/05/28 10:21:22;;;;;;;6.17;1.60;;;;;;;17.70;45.82;99123.51;1596899;87;21231;-70
2022/05/28 10:23:54;;;;;;;2.42;1.47;;;;;;;17.74;45.98;99136.20;1619830;87;21090;-70
2022/05/28 10:26:26;;;;;;;2.67;1.90;;;;;;;17.76;45.80;99131.80;1627414;87;21056;-72
2022/05/28 10:28:54;;;;;;;2.33;1.98;;;;;;;17.80;46.05;99124.06;1622481;87;20986;-72
2022/05/28 10:31:31;;;;;;;8.18;1.90;;;;;;;17.91;45.84;99115.09;1629510;87;21035;-70
2022/05/28 10:33:58;;;;;;;5.05;2.10;;;;;;;18.02;45.09;99147.73;1641349;86;21039;-72
2022/05/28 10:36:31;;;;;;;3.98;1.87;;;;;;;18.07;45.05;99123.11;1637531;87;21603;-77
2022/05/28 10:39:09;;;;;;;;;;;;;;;18.10;45.25;99119.75;1639340;87;21287;-71
2022/05/28 10:41:36;;;;;;;2.37;1.67;;;;;;;18.17;45.45;99118.75;1596050;89;20161;-72
2022/05/28 10:44:05;;;;;;;3.02;2.17;;;;;;;18.25;45.04;99111.73;1582592;90;21128;-72
2022/05/28 10:46:43;;;;;;;7.95;2.08;;;;;;;18.34;44.26;99109.84;1602486;88;21094;-73
2022/05/28 10:49:50;;;;;;;4.70;1.62;;;;;;;18.38;43.70;99104.00;1593866;88;21109;-74
2022/05/28 10:53:07;;;;;;;3.25;1.77;;;;;;;18.43;43.16;99105.22;1604738;88;21126;-72
2022/05/28 10:55:51;;;;;;;6.70;2.30;;;;;;;18.45;43.12;99117.17;1603919;88;21566;-76
2022/05/28 10:59:06;;;;;;;1.98;1.70;;;;;;;18.53;43.49;99110.41;1620905;87;21853;-78
2022/05/28 11:02:23;;;;;;;3.87;2.22;;;;;;;18.60;43.76;99104.52;1595598;89;21068;-76
2022/05/28 11:05:01;;;;;;;5.55;2.15;;;;;;;18.65;43.20;99096.20;1584638;90;21103;-79
2022/05/28 11:07:56;;;;;;;2.65;2.45;;;;;;;18.57;41.75;99101.04;1621053;87;21146;-75
2022/05/28 11:11:00;;;;;;;2.70;1.85;;;;;;;18.44;42.10;99104.66;1593954;88;20980;-78
2022/05/28 11:14:11;;;;;;;10.13;1.67;;;;;;;18.34;42.67;99099.50;1615960;87;21174;-81
2022/05/28 11:17:06;;;;;;;1.60;1.47;;;;;;;18.37;42.75;99098.31;1594364;87;21035;-82
2022/05/28 11:20:21;;;;;;;7.92;2.22;;;;;;;18.37;42.42;99100.25;1629372;87;21122;-82
2022/05/28 11:23:18;;;;;;;6.30;1.87;;;;;;;18.40;43.03;99095.53;1637773;87;21153;-81
2022/05/28 11:25:59;;;;;;;6.05;1.72;;;;;;;18.35;42.54;99099.20;1621322;87;21033;-80
2022/05/28 11:28:39;;;;;;;3.50;1.65;;;;;;;18.24;42.20;99095.95;1622529;87;21089;-82
2022/05/28 11:31:41;;;;;;;2.98;1.77;;;;;;;18.14;42.29;99101.67;1629609;87;21132;-80
2022/05/28 11:34:19;;;;;;;2.58;1.35;;;;;;;18.07;42.45;99112.22;1622007;88;21089;-83
2022/05/28 11:37:00;;;;;;;2.05;1.60;;;;;;;17.99;42.65;99096.63;1615267;87;20932;-82
2022/05/28 11:39:57;;;;;;;5.05;2.20;;;;;;;17.98;43.20;99096.97;1637122;87;21644;-75
2022/05/28 11:42:31;;;;;;;3.42;2.02;;;;;;;17.96;43.29;99102.71;1625061;87;20994;-78
2022/05/28 11:45:00;;;;;;;8.28;1.67;;;;;;;18.07;43.26;99111.41;1604540;89;21075;-77
2022/05/28 11:47:50;;;;;;;5.72;1.80;;;;;;;18.24;42.87;99100.59;1621633;87;21087;-72
2022/05/28 11:53:43;;;;;;;8.50;1.75;;;;;;;18.62;42.32;99097.62;1569133;91;21035;-74
2022/05/28 11:56:20;;;;;;;2.35;1.50;;;;;;;18.71;41.45;99119.42;1594785;90;21014;-86
2022/05/28 11:58:49;;;;;;;2.05;1.50;;;;;;;18.69;41.44;99109.42;1595288;90;21051;-84
2022/05/28 12:01:26;;;;;;;5.33;2.05;;;;;;;18.57;41.47;99114.10;1594959;90;21072;-83
2022/05/28 12:03:53;;;;;;;3.60;1.27;;;;;;;18.61;41.38;99108.27;1594521;90;21168;-74